Terminal Aerodrome Forecast
Issued by NWS

Home | Current Version | Previous Version | Text Only | Print | Product List | Glossary On
Versions: 1 2 3 4 5 6 7 8 9 10 11 12 13 14 15 16 17 18 19 20 21 22 23 24 25 26 27 28 29 30 31 32
000
FTUS46 KHNX 270601 AAB
TAFMCE
TAF AMD
KMCE 270601Z 2706/2806 00000KT 2SM BR SKC
     FM270800 12005KT 4SM BR VCSH BKN070 OVC100
     FM271400 14007KT P6SM VCSH BKN050 OVC070
     FM272300 32006KT P6SM BKN050=

USA.gov is the U.S. government's official web portal to all federal, state and local government web resources and services.